Albertson, New York
Current Conditions -  °F | °C
As of 8:51 PM on Saturday 25 Oct 2014 (Local Time) from KJFK Reporting Station
Scattered Clouds Scattered Clouds  
Wind Chill: 62°   Ceiling: Unl
Heat Index: 62°   Visibility: 10mi
Dew Point: 48°   Wind: 14mph
Humidity: 60%   Direction: 210°SSW
Pressure: 29.64"   Gusts: NA
Location:  40.77°N, 73.65°W
Report Text: KJFK 260051Z 21012KT 10SM SCT070 17/09 A2964 RMK AO2 SLP036 T01670089
Loading
Personal Weather Stations






























Interactive Weather Map
Tropical Storm Tracking
New forecast layout! Learn more

10-Day Weather Forecast

Advertisements
Track Severe Weather on mobile